Gettysburg, SD

05:32 CDT le 31 août 2014 (GMT -0500)
Aberdeen Regional | Change Station
CLOSE
Current Station
Aéroport
Location: Aberdeen,
Altitude: 1299 ft
Stations météo à proximité

Alt. 1299 ft 45.44 °N, 98.41 °W | Updated 39 minutes ago

Clear
Ciel dégagé
63 ° F
Paraît 63 ° F
N
13
Vent Variable Vent de Sud

Aujourd'hui
Haut(e) -- | Bas -- ° F
--% Risque de précip.
Hier
Haut(e) -- | Bas -- ° F
Precip. -- pouce
7:00 AM 8:18 PM
Lune montante, 29% visible
Pression 29.57 pouce
Visibilité 10.0 Miles terrestres
Nuages Ciel dégagé
Point de rosée 61 ° F
Humidité 93%
Précipitations 0.00 pouce
Profondeur de la couche neigeuse Non disponible.
UV 0 sur 12
Pollen 8.40 sur 12
Qualité de l'air Non disponible.
Flu Activity Non disponible.
METAR KABR 310953Z AUTO 17011KT 10SM CLR 17/16 A2959 RMK AO2 SLP013 T01720161

More Conditions Fewer Conditions

Pression 29.57 pouce
Visibilité 10.0 Miles terrestres
Nuages Ciel dégagé
Point de rosée 61 ° F
Humidité 93%
Précipitations 0.00 pouce
Profondeur de la couche neigeuse Non disponible.
UV 0 sur 12
Pollen 8.40 sur 12
Qualité de l'air Non disponible.
Flu Activity Non disponible.
METAR KABR 310953Z AUTO 17011KT 10SM CLR 17/16 A2959 RMK AO2 SLP013 T01720161

More Conditions Fewer Conditions

10-Day Weather Forecast

Almanac

Astronomie

Aug. 31, 2014 Lever Coucher
Temps réel 07:00 CDT 20:18 CDT
Crépuscule civil 06:30 CDT 20:49 CDT
Crépuscule nautique 05:53 CDT 21:25 CDT
Crépuscule astronomique 05:14 CDT 22:04 CDT
Lune 13:05 CDT 23:18 CDT
Durée de lumière visible 14h 18m
Longueur du jour
13h 17m
Tomorrow will be 3m 0s shorter.
Lune montante, 29% of the Moon is Illuminated
Aujourd'hui
Lune montante
Sep 2
Premier quartier
Sep 8
Pleine lune
Sep 15
Dernier quartier
Sep 24
Nouveau

Extrêmes aujourd'hui

State Highs State Lows

Community

WunderPhotos

Upload Photos

1,748,834 Photos téléchargées !

Nearby

Épaisseur de neige

Station Depth Altitude
North Rapid Creek 0 in 6130 ft
Blind Park 0 in 6890 ft

Activité sismique

Ville Distance Mag. Time & Date
No recent earthquake activity has been reported nearby.
Minimum magnitude displayed is 2.5.

Températures des eaux côtières

Lieu Température
Aucun rapport de station

Stations météo à proximité